Airfield :
LOGIN :

Register | Disclaimer

   EN    FR    IT 

 










Legend :    VFR   Marginal VFR   IFR   Intensive IFR   Very Intensive IFR
Visi :
Ceiling :
>= 8 km
>= 3000ft
5 to 8 km
1000 to 3000 ft
1500m to 5 km
500 to 1000 ft
800 to 1500m
200 to 500 ft
< 800m
< 200 ft
Symbols :   Thunderstorms  Fog  Heavy snow  Heavy precipitations  Wind > 20 kt
SIGMETs :     Misc.  Thunderstorms  Icing  Turbulence  Mountain Waves  Volcanic Ashes






- Airport Elevation : 56 ft
- IATA code : BZR


LFMU - Beziers / Vias

CURRENT METAR :
  • 261030Z AUTO 27009KT CAVOK 08/02 Q1030 NOSIG

EXPIRED METARs :
  • 261000Z AUTO 27009KT CAVOK 07/02 Q1031 NOSIG
  • 260930Z AUTO 27005KT CAVOK 05/02 Q1031 NOSIG
  • 260900Z AUTO VRB02KT CAVOK 03/03 Q1031 NOSIG
  • 260830Z AUTO VRB03KT CAVOK 00/M00 Q1031 NOSIG
  • 260800Z AUTO 30002KT CAVOK M02/M03 Q1031 NOSIG
  • 260730Z AUTO 33003KT CAVOK M02/M03 Q1031 NOSIG

TAF TAF LFMU
Valid from the 26 at 09:00 until the 27 at 09:00 UTC


260800Z 2609/2709 30004KT CAVOK
BECMG 2609/2611 27010KT
BECMG 2621/2623 27007KT
ATIS : +33 4 67 90 88 88



MET'MAP, your aeronautical weather chart ! - Copyright ORBIFLY December 2007 - Disclaimer

ORBIFLY MET'MAP TEAM :

Programming & Development : Alexandra Zaïnal
Original concept : Baudouin d'Aumeries
Technical & hardware support : Manuel Goepfert
Assistance : Marc-Olivier Méhu

Contact : metmap@orbifly.com




SOURCES & CREDITS :

   NOAA